createdAt,value
2024-04-12T00:02:14.448Z,16.1
2024-04-12T00:07:13.920Z,16.1
2024-04-12T00:12:14.345Z,16
2024-04-12T00:18:06.542Z,16
2024-04-12T00:23:06.460Z,15.8
2024-04-12T00:28:06.471Z,15.8
2024-04-12T00:33:06.557Z,15.9
2024-04-12T00:38:15.363Z,15.9
2024-04-12T00:43:13.245Z,15.8
2024-04-12T00:48:13.720Z,15.9
2024-04-12T00:53:13.909Z,15.9
2024-04-12T00:59:06.457Z,15.9
2024-04-12T01:04:06.465Z,15.8
2024-04-12T01:09:06.545Z,15.8
2024-04-12T01:14:13.227Z,15.1
2024-04-12T01:19:13.928Z,15.1
2024-04-12T01:24:15.073Z,15.2
2024-04-12T01:30:06.493Z,15.2
2024-04-12T01:35:13.990Z,15.3
2024-04-12T01:41:06.612Z,15.3
2024-04-12T01:46:13.490Z,15.3
2024-04-12T01:52:06.469Z,15.3
2024-04-12T01:57:06.564Z,15.3
2024-04-12T02:02:12.110Z,15.2
2024-04-12T02:07:13.669Z,15.3
2024-04-12T02:12:13.799Z,15.3
2024-04-12T02:28:13.325Z,15.2
2024-04-12T02:33:13.807Z,15.2
2024-04-12T02:39:06.541Z,15.1
2024-04-12T02:44:06.492Z,15
2024-04-12T02:49:13.821Z,14.9
2024-04-12T02:55:06.485Z,14.8
2024-04-12T03:00:06.509Z,14.7
2024-04-12T03:05:15.511Z,14.5
2024-04-12T03:11:06.490Z,14.3
2024-04-12T03:16:06.506Z,14.4
2024-04-12T03:21:06.509Z,14.3
2024-04-12T03:26:13.232Z,14.2
2024-04-12T03:31:14.197Z,14.1
2024-04-12T03:37:06.468Z,14
2024-04-12T03:42:07.220Z,13.9
2024-04-12T03:47:06.689Z,13.8
2024-04-12T03:52:14.007Z,13.8
2024-04-12T03:57:13.398Z,13.8
2024-04-12T04:02:13.557Z,13.8
2024-04-12T04:18:13.981Z,14
2024-04-12T04:29:06.510Z,14
2024-04-12T04:34:13.273Z,14.1
2024-04-12T04:40:06.502Z,14.2
2024-04-12T04:45:06.592Z,14.2
2024-04-12T04:50:13.739Z,14.2
2024-04-12T04:55:14.169Z,14.3
2024-04-12T05:01:06.548Z,14.2
2024-04-12T05:06:06.574Z,14.2
2024-04-12T05:11:13.260Z,14.2
2024-04-12T05:16:13.285Z,14.3
2024-04-12T05:21:13.347Z,14.1
2024-04-12T05:26:13.321Z,14.3
2024-04-12T05:31:14.307Z,14.3
2024-04-12T05:37:06.498Z,14.3
2024-04-12T06:09:07.815Z,14.8
2024-04-12T06:14:14.037Z,14.9
2024-04-12T06:35:13.340Z,15.1
2024-04-12T06:46:06.507Z,15.4
2024-04-12T06:51:14.034Z,15.4
2024-04-12T06:56:14.282Z,15.3
2024-04-12T07:02:06.505Z,15.6
2024-04-12T07:07:07.099Z,15.7
2024-04-12T07:12:13.700Z,15.8
2024-04-12T07:18:06.539Z,15.8
2024-04-12T07:23:06.556Z,16.1
2024-04-12T07:28:13.289Z,15.8
2024-04-12T07:33:13.457Z,16.1
2024-04-12T07:39:06.717Z,16.2
2024-04-12T07:44:13.778Z,16.1
2024-04-12T07:49:13.952Z,16.2
2024-04-12T07:54:14.833Z,16
2024-04-12T08:00:06.545Z,16.2
2024-04-12T08:05:13.768Z,16.5
2024-04-12T08:11:06.543Z,16.7
2024-04-12T08:16:13.388Z,16.5
2024-04-12T08:21:13.940Z,16.9
2024-04-12T08:27:06.664Z,17
2024-04-12T08:32:06.542Z,17
2024-04-12T08:37:13.289Z,17.3
2024-04-12T08:42:14.144Z,17.4
2024-04-12T08:48:06.642Z,17.5
2024-04-12T08:53:06.906Z,17.5
2024-04-12T08:58:06.545Z,17.6
2024-04-12T09:03:13.674Z,17.8
2024-04-12T09:08:13.814Z,18.1
2024-04-12T09:14:06.515Z,18.1
2024-04-12T09:19:06.644Z,17.8
2024-04-12T09:24:13.771Z,18.2
2024-04-12T09:30:06.666Z,18.5
2024-04-12T09:35:13.357Z,19
2024-04-12T09:40:13.951Z,20.1
2024-04-12T09:46:06.538Z,20.3
2024-04-12T09:51:13.552Z,20.4
2024-04-12T09:56:14.405Z,20.5
2024-04-12T10:02:06.561Z,21
2024-04-12T10:07:13.364Z,20.4
2024-04-12T10:13:06.536Z,21
2024-04-12T10:34:06.727Z,20.8
2024-04-12T10:39:14.214Z,21.2
2024-04-12T10:45:06.573Z,21.4
2024-04-12T10:50:06.596Z,21.7
2024-04-12T11:00:13.918Z,22.5
2024-04-12T11:06:06.573Z,22.2
2024-04-12T11:11:06.562Z,22.5
2024-04-12T11:16:06.560Z,22.8
2024-04-12T11:21:06.673Z,22.9
2024-04-12T11:26:13.354Z,22.8
2024-04-12T11:31:13.748Z,22.7
2024-04-12T11:36:13.961Z,22.2
2024-04-12T11:42:06.606Z,22.3
2024-04-12T11:47:14.087Z,22.8
2024-04-12T11:53:06.569Z,22.9
2024-04-12T11:58:06.579Z,23
2024-04-12T12:03:15.809Z,23
2024-04-12T12:09:06.587Z,23
2024-04-12T12:14:06.599Z,22.6
2024-04-12T12:19:06.640Z,22.6
2024-04-12T12:24:13.812Z,22.6
2024-04-12T12:35:13.910Z,22.3
2024-04-12T12:41:06.583Z,22.3
2024-04-12T12:46:06.602Z,21.7
2024-04-12T12:51:13.687Z,21.8
2024-04-12T12:57:06.655Z,21.6
2024-04-12T13:07:14.084Z,21.6
2024-04-12T13:13:06.593Z,21.8
2024-04-12T13:18:13.554Z,21.5
2024-04-12T13:23:13.641Z,21
2024-04-12T13:29:06.589Z,21
2024-04-12T13:34:06.674Z,21
2024-04-12T13:39:06.687Z,21
2024-04-12T13:44:13.597Z,21.4
2024-04-12T13:49:14.053Z,21.3
2024-04-12T13:55:06.606Z,21.4
2024-04-12T14:00:14.030Z,21.4
2024-04-12T14:05:14.041Z,21.6
2024-04-12T14:11:06.699Z,22
2024-04-12T14:16:06.676Z,22.1
2024-04-12T14:21:06.741Z,22
2024-04-12T14:26:14.008Z,21.6
2024-04-12T14:32:06.686Z,21.6
2024-04-12T14:37:13.883Z,22.1
2024-04-12T14:43:06.690Z,22.3
2024-04-12T14:48:12.134Z,22.4
2024-04-12T14:53:06.712Z,22.4
2024-04-12T14:58:13.750Z,22.4
2024-04-12T15:04:06.684Z,22.3
2024-04-12T15:09:14.026Z,22.2
2024-04-12T15:15:06.713Z,22
2024-04-12T15:20:06.678Z,22
2024-04-12T15:31:06.634Z,21.9
2024-04-12T15:36:06.699Z,21.9
2024-04-12T15:41:13.504Z,22.3
2024-04-12T15:47:06.665Z,22.2
2024-04-12T15:52:06.658Z,22.5
2024-04-12T15:57:13.509Z,22
2024-04-12T16:02:13.927Z,22
2024-04-12T16:08:06.674Z,22.2
2024-04-12T16:13:13.436Z,21.8
2024-04-12T16:18:14.445Z,21.6
2024-04-12T16:24:06.726Z,21.8
2024-04-12T16:29:14.225Z,21.7
2024-04-12T16:35:06.668Z,21.5
2024-04-12T16:40:13.964Z,21.5
2024-04-12T16:46:06.665Z,21.3
2024-04-12T16:51:06.677Z,21.4
2024-04-12T16:56:06.698Z,21.5
2024-04-12T17:01:14.135Z,21.2
2024-04-12T17:07:06.679Z,20.9
2024-04-12T17:12:14.199Z,20.9
2024-04-12T17:18:06.864Z,20.6
2024-04-12T17:23:06.693Z,20.6
2024-04-12T17:28:13.584Z,20.5
2024-04-12T17:39:14.266Z,20.3
2024-04-12T17:50:06.686Z,20.2
2024-04-12T17:55:14.437Z,20.1
2024-04-12T18:01:06.806Z,19.9
2024-04-12T18:06:06.688Z,19.6
2024-04-12T18:11:06.792Z,19.6
2024-04-12T18:16:13.448Z,19.5
2024-04-12T18:21:13.518Z,19.4
2024-04-12T18:27:06.707Z,19.2
2024-04-12T18:32:06.786Z,19
2024-04-12T18:37:13.481Z,18.7
2024-04-12T18:42:13.847Z,18.5
2024-04-12T18:48:06.809Z,18.5
2024-04-12T18:53:13.548Z,18.3
2024-04-12T19:04:06.745Z,18.1
2024-04-12T19:14:13.546Z,17.6
2024-04-12T19:20:06.687Z,17.8
2024-04-12T19:30:13.550Z,17.7
2024-04-12T19:35:13.614Z,17.7
2024-04-12T19:46:06.704Z,17.5
2024-04-12T19:51:06.740Z,17.5
2024-04-12T19:56:13.999Z,17.2
2024-04-12T20:02:06.781Z,17.2
2024-04-12T20:07:13.508Z,17.2
2024-04-12T20:12:13.941Z,17.1
2024-04-12T20:17:14.045Z,17.1
2024-04-12T20:23:06.752Z,17
2024-04-12T20:28:13.534Z,16.9
2024-04-12T20:33:13.837Z,16.8
2024-04-12T20:39:07.076Z,16.9
2024-04-12T20:44:06.719Z,16.8
2024-04-12T20:49:06.732Z,16.8
2024-04-12T20:54:06.813Z,16.8
2024-04-12T20:59:14.027Z,16.7
2024-04-12T21:05:06.960Z,16.6
2024-04-12T21:10:06.744Z,16.4
2024-04-12T21:15:13.512Z,16.4
2024-04-12T21:20:14.082Z,16.4
2024-04-12T21:26:06.716Z,16.3
2024-04-12T21:31:06.734Z,16.4
2024-04-12T21:36:07.009Z,16.3
2024-04-12T21:41:13.607Z,16.3
2024-04-12T21:47:06.776Z,16.3
2024-04-12T21:52:06.762Z,16.2
2024-04-12T21:57:14.183Z,16.2
2024-04-12T22:08:06.715Z,16.2
2024-04-12T22:24:06.771Z,16
2024-04-12T22:29:13.528Z,15.9
2024-04-12T22:34:14.615Z,15.9
2024-04-12T22:40:06.753Z,15.8
2024-04-12T22:45:06.764Z,15.7
2024-04-12T22:50:13.518Z,15.5
2024-04-12T22:55:13.987Z,15.5
2024-04-12T23:00:14.555Z,15.4
2024-04-12T23:06:06.775Z,15.5
2024-04-12T23:11:08.491Z,15.3
2024-04-12T23:16:06.807Z,15.4
2024-04-12T23:21:14.008Z,15.3
2024-04-12T23:27:06.784Z,15.3
2024-04-12T23:32:06.749Z,15.3
2024-04-12T23:37:06.775Z,15.3
2024-04-12T23:42:14.529Z,15.3
2024-04-12T23:48:06.858Z,15.2
2024-04-12T23:53:13.524Z,15.1
2024-04-12T23:58:13.543Z,15
